Terminal Aerodrome Forecast
Issued by NWS

Home | Current Version | Previous Version | Text Only | Print | Product List | Glossary On
Versions: 1 2 3 4 5 6 7 8 9 10 11 12 13 14 15 16 17
923
FTUS43 KICT 230357 AAA
TAFCNU
TAF AMD
KCNU 230357Z 2304/2324 VRB05KT P6SM BKN070
      TEMPO 2304/2306 3SM BR
     FM230600 08004KT P6SM VCSH OVC060
     FM230900 VRB03KT P6SM VCSH OVC035
     FM231200 31006KT P6SM BKN050
     FM231600 34009KT P6SM VCSH BKN040=

USA.gov is the U.S. government's official web portal to all federal, state and local government web resources and services.